createdAt,value
2018-10-04T00:00:39.921Z,99.90
2018-10-04T00:03:09.291Z,99.90
2018-10-04T00:05:38.690Z,99.90
2018-10-04T00:08:08.091Z,99.90
2018-10-04T00:10:37.667Z,99.90
2018-10-04T00:13:07.263Z,99.90
2018-10-04T00:15:36.667Z,99.90
2018-10-04T00:18:06.070Z,99.90
2018-10-04T00:20:35.435Z,99.90
2018-10-04T00:23:04.931Z,99.90
2018-10-04T00:25:34.310Z,99.90
2018-10-04T00:28:03.878Z,99.90
2018-10-04T00:30:33.265Z,99.90
2018-10-04T00:33:02.658Z,99.90
2018-10-04T00:35:32.112Z,99.90
2018-10-04T00:38:01.528Z,99.90
2018-10-04T00:40:31.001Z,99.90
2018-10-04T00:43:00.451Z,99.90
2018-10-04T00:45:29.939Z,99.90
2018-10-04T00:47:59.486Z,99.90
2018-10-04T00:50:28.914Z,99.90
2018-10-04T00:52:58.397Z,99.90
2018-10-04T00:55:27.831Z,99.90
2018-10-04T00:57:57.249Z,99.90
2018-10-04T01:00:26.609Z,99.90
2018-10-04T01:02:56.004Z,99.90
2018-10-04T01:05:25.444Z,99.90
2018-10-04T01:07:54.871Z,99.90
2018-10-04T01:10:24.258Z,99.90
2018-10-04T01:12:53.655Z,99.90
2018-10-04T01:15:23.200Z,99.90
2018-10-04T01:18:09.553Z,99.90
2018-10-04T01:20:38.928Z,99.90
2018-10-04T01:23:08.647Z,99.90
2018-10-04T01:25:38.156Z,99.90
2018-10-04T01:28:07.505Z,99.90
2018-10-04T01:30:37.040Z,99.90
2018-10-04T01:33:06.599Z,99.90
2018-10-04T01:35:36.020Z,99.90
2018-10-04T01:38:05.434Z,99.90
2018-10-04T01:40:34.931Z,99.90
2018-10-04T01:43:04.403Z,99.90
2018-10-04T01:45:33.786Z,99.90
2018-10-04T01:48:03.223Z,99.90
2018-10-04T01:50:32.650Z,99.90
2018-10-04T01:53:01.994Z,99.90
2018-10-04T01:55:31.383Z,99.90
2018-10-04T01:58:00.788Z,99.90
2018-10-04T02:00:30.179Z,99.90
2018-10-04T02:02:59.589Z,99.90
2018-10-04T02:05:28.967Z,99.90
2018-10-04T02:07:58.420Z,99.90
2018-10-04T02:10:27.813Z,99.90
2018-10-04T02:12:57.464Z,99.90
2018-10-04T02:15:26.812Z,99.90
2018-10-04T02:17:56.195Z,99.90
2018-10-04T02:20:25.551Z,99.90
2018-10-04T02:22:54.945Z,99.90
2018-10-04T02:25:24.297Z,99.90
2018-10-04T02:27:53.664Z,99.90
2018-10-04T02:33:33.135Z,99.90
2018-10-04T02:36:02.537Z,99.90
2018-10-04T02:38:31.905Z,99.90
2018-10-04T02:41:01.307Z,99.90
2018-10-04T02:43:30.700Z,99.90
2018-10-04T02:46:00.150Z,99.90
2018-10-04T02:48:29.796Z,99.90
2018-10-04T02:50:59.339Z,99.90
2018-10-04T02:53:28.880Z,99.90
2018-10-04T02:56:03.295Z,99.90
2018-10-04T02:58:36.360Z,99.90
2018-10-04T03:01:06.601Z,99.90
2018-10-04T03:03:36.833Z,99.90
2018-10-04T03:06:07.055Z,99.90
2018-10-04T03:08:37.383Z,99.90
2018-10-04T03:11:07.828Z,99.90
2018-10-04T03:13:37.988Z,99.90
2018-10-04T03:16:11.303Z,99.90
2018-10-04T03:18:43.653Z,99.90
2018-10-04T03:21:15.331Z,99.90
2018-10-04T03:23:46.675Z,99.90
2018-10-04T03:26:18.106Z,99.90
2018-10-04T03:28:49.211Z,99.90
2018-10-04T03:31:20.570Z,99.90
2018-10-04T03:33:52.339Z,99.90
2018-10-04T03:36:23.636Z,99.90
2018-10-04T03:38:54.983Z,99.90
2018-10-04T03:41:27.605Z,99.90
2018-10-04T03:43:59.129Z,99.90
2018-10-04T03:46:31.470Z,99.90
2018-10-04T03:49:04.881Z,99.90
2018-10-04T03:51:36.586Z,99.90
2018-10-04T03:54:08.331Z,99.90
2018-10-04T03:56:38.941Z,99.90
2018-10-04T03:59:09.403Z,99.90
2018-10-04T04:01:39.751Z,99.90
2018-10-04T04:04:10.195Z,99.90
2018-10-04T04:06:40.651Z,99.90
2018-10-04T04:09:13.116Z,99.90
2018-10-04T04:11:43.361Z,99.90
2018-10-04T04:14:13.912Z,99.90
2018-10-04T04:16:44.427Z,99.90
2018-10-04T04:19:14.570Z,99.90
2018-10-04T04:21:44.966Z,99.90
2018-10-04T04:24:15.379Z,99.90
2018-10-04T04:26:44.928Z,99.90
2018-10-04T04:29:14.469Z,99.90
2018-10-04T04:31:44.082Z,99.90
2018-10-04T04:34:13.444Z,99.90
2018-10-04T04:36:42.911Z,99.90
2018-10-04T04:39:12.262Z,99.90
2018-10-04T04:41:41.692Z,99.90
2018-10-04T04:44:11.164Z,99.90
2018-10-04T04:46:40.780Z,99.90
2018-10-04T04:49:10.059Z,99.90
2018-10-04T04:51:39.447Z,99.90
2018-10-04T04:54:09.509Z,99.90
2018-10-04T04:56:38.923Z,99.90
2018-10-04T04:59:08.420Z,99.90
2018-10-04T05:01:37.837Z,99.90
2018-10-04T05:04:07.154Z,99.90
2018-10-04T05:06:36.613Z,99.90
2018-10-04T05:09:06.022Z,99.90
2018-10-04T05:11:35.521Z,99.90
2018-10-04T05:14:04.897Z,99.90
2018-10-04T05:16:34.373Z,99.90
2018-10-04T05:19:03.946Z,99.90
2018-10-04T05:21:33.348Z,99.90
2018-10-04T05:24:02.811Z,99.90
2018-10-04T05:26:32.245Z,99.90
2018-10-04T05:29:01.643Z,99.90
2018-10-04T05:31:31.057Z,99.90
2018-10-04T05:34:00.425Z,99.90
2018-10-04T05:36:29.819Z,99.90
2018-10-04T05:38:59.265Z,99.90
2018-10-04T05:41:28.845Z,99.90
2018-10-04T05:43:58.272Z,99.90
2018-10-04T05:46:27.619Z,99.90
2018-10-04T05:48:57.006Z,99.90
2018-10-04T05:51:26.463Z,99.90
2018-10-04T05:53:55.855Z,99.90
2018-10-04T05:56:25.243Z,99.90
2018-10-04T05:58:54.665Z,99.90
2018-10-04T06:01:24.063Z,99.90
2018-10-04T06:03:53.454Z,99.90
2018-10-04T06:06:22.853Z,99.90
2018-10-04T06:08:52.269Z,99.90
2018-10-04T06:11:21.701Z,99.90
2018-10-04T06:13:51.062Z,99.90
2018-10-04T06:16:20.461Z,99.90
2018-10-04T06:18:49.840Z,99.90
2018-10-04T06:21:19.362Z,99.90
2018-10-04T06:23:48.820Z,99.90
2018-10-04T06:26:18.474Z,99.90
2018-10-04T06:28:48.054Z,99.90
2018-10-04T06:31:17.361Z,99.90
2018-10-04T06:33:46.748Z,99.90
2018-10-04T06:36:16.153Z,99.90
2018-10-04T06:38:45.547Z,99.90
2018-10-04T06:41:14.948Z,99.90
2018-10-04T06:43:44.322Z,99.90
2018-10-04T06:46:13.687Z,99.90
2018-10-04T06:48:43.119Z,99.90
2018-10-04T06:51:12.553Z,99.90
2018-10-04T06:53:42.013Z,99.90
2018-10-04T06:56:11.428Z,99.90
2018-10-04T06:58:40.855Z,99.90
2018-10-04T07:01:10.206Z,99.90
2018-10-04T07:03:39.642Z,99.90
2018-10-04T07:06:09.037Z,99.90
2018-10-04T07:08:38.387Z,99.90
2018-10-04T07:11:07.876Z,99.90
2018-10-04T07:13:37.327Z,99.90
2018-10-04T07:16:06.799Z,99.90
2018-10-04T07:18:36.167Z,99.90
2018-10-04T07:21:05.664Z,99.90
2018-10-04T07:23:35.081Z,99.90
2018-10-04T07:26:04.591Z,99.90
2018-10-04T07:28:34.040Z,99.90
2018-10-04T07:31:03.533Z,99.90
2018-10-04T07:33:33.084Z,99.90
2018-10-04T07:36:02.565Z,99.90
2018-10-04T07:38:32.023Z,99.90
2018-10-04T07:41:01.467Z,99.90
2018-10-04T07:43:30.873Z,99.90
2018-10-04T07:46:00.335Z,99.90
2018-10-04T07:48:29.742Z,99.90
2018-10-04T07:50:59.113Z,99.90
2018-10-04T07:53:28.452Z,99.90
2018-10-04T07:55:57.891Z,99.90
2018-10-04T07:58:27.326Z,99.90
2018-10-04T08:00:56.753Z,99.90
2018-10-04T08:03:26.159Z,99.90
2018-10-04T08:05:55.792Z,99.90
2018-10-04T08:08:25.027Z,99.90
2018-10-04T08:10:54.340Z,99.90
2018-10-04T08:13:23.764Z,99.90
2018-10-04T08:15:53.124Z,99.90
2018-10-04T08:18:22.572Z,99.90
2018-10-04T08:20:52.026Z,99.90
2018-10-04T08:23:21.348Z,99.90
2018-10-04T08:25:50.723Z,99.90
2018-10-04T08:28:20.135Z,99.90
2018-10-04T08:30:49.650Z,99.90
2018-10-04T08:33:19.042Z,99.90
2018-10-04T08:35:48.584Z,99.90
2018-10-04T08:38:18.017Z,99.90
2018-10-04T08:40:47.463Z,99.90
2018-10-04T08:43:16.903Z,99.90
2018-10-04T08:45:47.157Z,99.90
2018-10-04T08:48:16.555Z,99.90
2018-10-04T08:50:50.051Z,99.90
2018-10-04T08:53:19.513Z,99.90
2018-10-04T08:55:48.949Z,99.90
2018-10-04T08:58:18.437Z,99.90
2018-10-04T09:00:47.857Z,99.90
2018-10-04T09:03:19.766Z,99.90
2018-10-04T09:05:49.531Z,99.90
2018-10-04T09:08:18.927Z,99.90
2018-10-04T09:10:48.410Z,99.90
2018-10-04T09:13:17.841Z,99.90
2018-10-04T09:15:47.231Z,99.90
2018-10-04T09:18:16.691Z,99.90
2018-10-04T09:20:46.119Z,99.90
2018-10-04T09:23:15.546Z,99.90
2018-10-04T09:25:44.960Z,99.90
2018-10-04T09:28:16.550Z,99.90
2018-10-04T09:30:51.232Z,99.90
2018-10-04T09:33:21.026Z,99.90
2018-10-04T09:35:50.477Z,99.90
2018-10-04T09:38:21.120Z,99.90
2018-10-04T09:40:50.931Z,99.90
2018-10-04T09:43:20.448Z,99.90
2018-10-04T09:45:49.833Z,99.90
2018-10-04T09:48:19.241Z,99.90
2018-10-04T09:50:48.665Z,99.90
2018-10-04T09:53:18.098Z,99.90
2018-10-04T09:55:52.495Z,99.90
2018-10-04T09:58:21.922Z,99.90
2018-10-04T10:00:56.584Z,99.90
2018-10-04T10:03:25.967Z,99.90
2018-10-04T10:05:55.442Z,99.90
2018-10-04T10:08:24.845Z,99.90
2018-10-04T10:10:54.334Z,99.90
2018-10-04T10:13:23.774Z,99.90
2018-10-04T10:15:53.196Z,99.90
2018-10-04T10:18:22.563Z,99.90
2018-10-04T10:20:51.965Z,99.90
2018-10-04T10:23:21.297Z,99.90
2018-10-04T10:25:50.683Z,99.90
2018-10-04T10:28:20.062Z,99.90
2018-10-04T10:30:49.491Z,99.90
2018-10-04T10:33:18.895Z,99.90
2018-10-04T10:35:48.441Z,99.90
2018-10-04T10:38:17.955Z,99.90
2018-10-04T10:40:47.404Z,99.90
2018-10-04T10:43:16.800Z,99.90
2018-10-04T10:45:46.155Z,99.90
2018-10-04T10:48:15.540Z,99.90
2018-10-04T10:50:44.924Z,99.90
2018-10-04T10:53:15.149Z,99.90
2018-10-04T10:55:44.550Z,99.90
2018-10-04T10:58:14.199Z,99.50
2018-10-04T11:00:43.723Z,98.90
2018-10-04T11:03:13.320Z,99.60
2018-10-04T11:05:42.681Z,99.30
2018-10-04T11:08:12.057Z,98.30
2018-10-04T11:10:41.473Z,97.70
2018-10-04T11:13:10.907Z,98.00
2018-10-04T11:15:40.309Z,97.70
2018-10-04T11:18:09.671Z,97.70
2018-10-04T11:20:39.072Z,98.20
2018-10-04T11:23:08.517Z,97.60
2018-10-04T11:25:37.875Z,98.00
2018-10-04T11:28:07.346Z,96.80
2018-10-04T11:30:36.895Z,97.60
2018-10-04T11:33:06.438Z,95.90
2018-10-04T11:35:35.896Z,96.20
2018-10-04T11:38:05.337Z,97.30
2018-10-04T11:40:34.700Z,97.30
2018-10-04T11:43:04.221Z,96.40
2018-10-04T11:45:36.666Z,95.40
2018-10-04T11:48:06.351Z,94.50
2018-10-04T11:50:35.838Z,95.40
2018-10-04T11:53:05.200Z,92.90
2018-10-04T11:55:34.695Z,93.20
2018-10-04T11:58:04.222Z,92.40
2018-10-04T12:00:33.597Z,92.70
2018-10-04T12:03:02.967Z,92.10
2018-10-04T12:05:32.404Z,92.60
2018-10-04T12:08:01.788Z,94.50
2018-10-04T12:10:31.168Z,94.10
2018-10-04T12:13:01.107Z,94.00
2018-10-04T12:15:30.451Z,93.80
2018-10-04T12:17:59.840Z,93.60
2018-10-04T12:20:29.222Z,93.60
2018-10-04T12:22:58.576Z,93.50
2018-10-04T12:25:27.997Z,91.70
2018-10-04T12:27:57.407Z,91.80
2018-10-04T12:30:26.767Z,92.60
2018-10-04T12:32:56.120Z,93.00
2018-10-04T12:35:25.460Z,92.30
2018-10-04T12:37:54.883Z,92.60
2018-10-04T12:40:24.222Z,92.90
2018-10-04T12:42:53.752Z,92.40
2018-10-04T12:45:23.145Z,92.00
2018-10-04T12:47:52.553Z,92.00
2018-10-04T12:50:21.902Z,91.80
2018-10-04T12:52:51.357Z,91.10
2018-10-04T12:55:20.865Z,91.20
2018-10-04T12:57:50.214Z,91.40
2018-10-04T13:00:21.399Z,90.90
2018-10-04T13:02:51.148Z,90.80
2018-10-04T13:05:20.531Z,90.90
2018-10-04T13:07:49.931Z,90.80
2018-10-04T13:10:19.354Z,90.50
2018-10-04T13:12:48.774Z,90.50
2018-10-04T13:15:18.200Z,90.60
2018-10-04T13:17:47.597Z,90.60
2018-10-04T13:20:16.969Z,90.50
2018-10-04T13:22:46.337Z,90.30
2018-10-04T13:25:15.872Z,90.40
2018-10-04T13:27:45.383Z,90.50
2018-10-04T13:30:14.786Z,90.60
2018-10-04T13:32:45.734Z,90.10
2018-10-04T13:35:15.211Z,90.90
2018-10-04T13:37:44.582Z,90.70
2018-10-04T13:40:14.025Z,90.60
2018-10-04T13:42:43.454Z,90.20
2018-10-04T13:45:13.140Z,89.80
2018-10-04T13:47:42.546Z,89.90
2018-10-04T13:50:12.100Z,89.50
2018-10-04T13:52:41.585Z,89.40
2018-10-04T13:55:11.207Z,89.80
2018-10-04T13:57:40.631Z,89.50
2018-10-04T14:00:10.143Z,89.50
2018-10-04T14:02:39.696Z,90.30
2018-10-04T14:05:09.131Z,90.00
2018-10-04T14:07:38.622Z,89.10
2018-10-04T14:10:08.270Z,88.70
2018-10-04T14:12:37.749Z,89.00
2018-10-04T14:15:07.529Z,88.60
2018-10-04T14:17:37.486Z,89.20
2018-10-04T14:20:07.033Z,89.00
2018-10-04T14:22:36.474Z,88.30
2018-10-04T14:25:06.620Z,88.00
2018-10-04T14:27:36.135Z,88.40
2018-10-04T14:30:05.656Z,88.00
2018-10-04T14:32:35.171Z,87.10
2018-10-04T14:35:04.726Z,87.70
2018-10-04T14:37:34.431Z,87.40
2018-10-04T14:40:04.069Z,87.70
2018-10-04T14:42:33.651Z,87.50
2018-10-04T14:45:03.193Z,86.90
2018-10-04T14:47:32.781Z,86.80
2018-10-04T14:50:02.261Z,85.00
2018-10-04T14:52:31.837Z,85.60
2018-10-04T14:55:01.738Z,85.90
2018-10-04T14:57:31.279Z,86.00
2018-10-04T15:00:00.760Z,85.70
2018-10-04T15:02:30.175Z,85.10
2018-10-04T15:04:59.657Z,85.40
2018-10-04T15:07:29.051Z,85.30
2018-10-04T15:09:58.606Z,84.10
2018-10-04T15:12:28.075Z,83.40
2018-10-04T15:14:57.541Z,83.10
2018-10-04T15:17:26.946Z,83.20
2018-10-04T15:19:56.316Z,83.80
2018-10-04T15:22:25.828Z,82.50
2018-10-04T15:24:55.302Z,81.30
2018-10-04T15:27:24.813Z,82.00
2018-10-04T15:29:54.317Z,80.50
2018-10-04T15:32:23.732Z,81.20
2018-10-04T15:34:53.131Z,81.00
2018-10-04T15:37:23.571Z,80.90
2018-10-04T15:39:53.032Z,81.90
2018-10-04T15:42:22.457Z,81.70
2018-10-04T15:44:51.897Z,81.40
2018-10-04T15:47:21.414Z,81.70
2018-10-04T15:49:50.995Z,81.60
2018-10-04T15:52:20.549Z,81.50
2018-10-04T15:54:50.189Z,82.00
2018-10-04T15:57:19.595Z,82.40
2018-10-04T15:59:49.041Z,82.00
2018-10-04T16:02:18.451Z,81.40
2018-10-04T16:04:48.264Z,82.20
2018-10-04T16:07:19.599Z,82.40
2018-10-04T16:09:49.928Z,82.80
2018-10-04T16:12:20.683Z,83.00
2018-10-04T16:14:52.102Z,83.30
2018-10-04T16:17:23.347Z,84.50
2018-10-04T16:19:54.951Z,85.10
2018-10-04T16:22:24.311Z,85.70
2018-10-04T16:24:53.731Z,86.50
2018-10-04T16:27:28.352Z,86.80
2018-10-04T16:29:59.099Z,87.20
2018-10-04T16:32:28.533Z,87.80
2018-10-04T16:34:57.930Z,88.00
2018-10-04T16:37:27.481Z,88.10
2018-10-04T16:39:56.921Z,88.40
2018-10-04T16:42:26.410Z,89.10
2018-10-04T16:44:55.789Z,89.80
2018-10-04T16:47:25.175Z,90.20
2018-10-04T16:49:54.560Z,90.60
2018-10-04T16:52:23.999Z,90.40
2018-10-04T16:54:53.609Z,90.20
2018-10-04T16:57:23.034Z,90.40
2018-10-04T16:59:52.462Z,90.40
2018-10-04T17:02:21.912Z,90.60
2018-10-04T17:04:51.338Z,90.40
2018-10-04T17:07:21.026Z,90.60
2018-10-04T17:09:50.627Z,90.40
2018-10-04T17:12:20.283Z,90.70
2018-10-04T17:14:49.738Z,90.50
2018-10-04T17:17:19.181Z,91.70
2018-10-04T17:19:48.614Z,91.90
2018-10-04T17:22:18.084Z,92.00
2018-10-04T17:24:47.406Z,92.40
2018-10-04T17:27:16.860Z,92.80
2018-10-04T17:29:46.276Z,92.70
2018-10-04T17:32:18.528Z,92.80
2018-10-04T17:34:47.905Z,92.90
2018-10-04T17:37:17.362Z,93.10
2018-10-04T17:39:46.764Z,93.00
2018-10-04T17:42:16.162Z,93.00
2018-10-04T17:44:45.545Z,92.80
2018-10-04T17:47:15.001Z,92.70
2018-10-04T17:49:44.530Z,92.80
2018-10-04T17:52:13.987Z,92.60
2018-10-04T17:54:43.391Z,92.60
2018-10-04T17:57:12.889Z,92.80
2018-10-04T17:59:42.407Z,92.60
2018-10-04T18:02:11.912Z,92.60
2018-10-04T18:04:41.399Z,92.50
2018-10-04T18:07:10.856Z,92.50
2018-10-04T18:09:40.299Z,92.60
2018-10-04T18:12:10.692Z,92.70
2018-10-04T18:14:40.111Z,92.70
2018-10-04T18:17:09.628Z,92.60
2018-10-04T18:19:39.137Z,93.00
2018-10-04T18:22:15.013Z,93.10
2018-10-04T18:24:44.371Z,93.30
2018-10-04T18:27:13.803Z,93.20
2018-10-04T18:29:43.211Z,93.40
2018-10-04T18:32:12.574Z,93.60
2018-10-04T18:34:42.111Z,93.70
2018-10-04T18:37:11.579Z,94.00
2018-10-04T18:39:41.083Z,94.10
2018-10-04T18:42:10.438Z,94.30
2018-10-04T18:44:39.861Z,94.50
2018-10-04T18:47:09.451Z,94.70
2018-10-04T18:49:41.439Z,95.00
2018-10-04T18:52:11.225Z,95.10
2018-10-04T18:54:40.600Z,95.70
2018-10-04T18:57:10.033Z,96.00
2018-10-04T18:59:39.719Z,96.40
2018-10-04T19:02:09.109Z,96.50
2018-10-04T19:04:38.513Z,96.70
2018-10-04T19:07:07.956Z,96.90
2018-10-04T19:09:37.369Z,97.10
2018-10-04T19:12:06.799Z,97.40
2018-10-04T19:14:36.222Z,97.50
2018-10-04T19:17:05.636Z,97.70
2018-10-04T19:19:35.082Z,97.90
2018-10-04T19:22:04.538Z,98.00
2018-10-04T19:24:33.906Z,98.00
2018-10-04T19:27:03.291Z,97.90
2018-10-04T19:29:32.765Z,97.90
2018-10-04T19:32:02.210Z,97.80
2018-10-04T19:34:31.603Z,98.00
2018-10-04T19:37:01.038Z,98.20
2018-10-04T19:39:30.425Z,98.30
2018-10-04T19:41:59.816Z,98.30
2018-10-04T19:44:29.283Z,98.40
2018-10-04T19:46:58.735Z,98.60
2018-10-04T19:49:28.043Z,98.80
2018-10-04T19:51:57.502Z,98.70
2018-10-04T19:54:26.971Z,98.80
2018-10-04T19:56:56.441Z,99.00
2018-10-04T19:59:25.875Z,99.10
2018-10-04T20:01:55.236Z,99.20
2018-10-04T20:04:24.739Z,99.20
2018-10-04T20:06:54.246Z,99.40
2018-10-04T20:09:24.287Z,99.50
2018-10-04T20:11:53.809Z,99.90
2018-10-04T20:14:23.281Z,99.90
2018-10-04T20:16:52.671Z,99.90
2018-10-04T20:19:22.086Z,99.90
2018-10-04T20:21:51.498Z,99.90
2018-10-04T20:24:20.906Z,99.90
2018-10-04T20:26:50.364Z,99.90
2018-10-04T20:29:20.225Z,99.90
2018-10-04T20:31:49.599Z,99.90
2018-10-04T20:34:19.041Z,99.90
2018-10-04T20:36:48.406Z,99.90
2018-10-04T20:39:17.805Z,99.90
2018-10-04T20:41:47.191Z,99.90
2018-10-04T20:44:16.636Z,99.90
2018-10-04T20:46:45.978Z,99.90
2018-10-04T20:49:15.391Z,99.90
2018-10-04T20:51:44.792Z,99.90
2018-10-04T20:54:14.222Z,99.90
2018-10-04T20:56:43.669Z,99.90
2018-10-04T20:59:13.148Z,99.90
2018-10-04T21:01:42.491Z,99.90
2018-10-04T21:04:12.117Z,99.90
2018-10-04T21:06:41.684Z,99.90
2018-10-04T21:09:12.133Z,99.90
2018-10-04T21:11:41.937Z,99.90
2018-10-04T21:14:12.231Z,99.90
2018-10-04T21:16:41.659Z,99.90
2018-10-04T21:19:11.121Z,99.90
2018-10-04T21:21:40.550Z,99.90
2018-10-04T21:24:10.023Z,99.90
2018-10-04T21:26:39.411Z,99.90
2018-10-04T21:29:08.846Z,99.90
2018-10-04T21:31:38.337Z,99.90
2018-10-04T21:34:07.735Z,99.90
2018-10-04T21:36:37.169Z,99.90
2018-10-04T21:39:07.256Z,99.90
2018-10-04T21:41:37.073Z,99.90
2018-10-04T21:44:06.571Z,99.90
2018-10-04T21:46:35.952Z,99.90
2018-10-04T21:49:05.386Z,99.90
2018-10-04T21:51:34.823Z,99.90
2018-10-04T21:54:04.276Z,99.90
2018-10-04T21:56:33.721Z,99.90
2018-10-04T21:59:03.181Z,99.90
2018-10-04T22:01:32.658Z,99.90
2018-10-04T22:04:02.164Z,99.90
2018-10-04T22:06:31.579Z,99.90
2018-10-04T22:09:00.964Z,99.90
2018-10-04T22:11:30.426Z,99.90
2018-10-04T22:13:59.940Z,99.90
2018-10-04T22:16:29.527Z,99.90
2018-10-04T22:18:58.948Z,99.90
2018-10-04T22:21:28.301Z,99.90
2018-10-04T22:23:57.680Z,99.90
2018-10-04T22:26:27.069Z,99.90
2018-10-04T22:28:56.447Z,99.90
2018-10-04T22:31:25.856Z,99.90
2018-10-04T22:33:55.295Z,99.90
2018-10-04T22:36:24.725Z,99.90
2018-10-04T22:38:54.138Z,99.90
2018-10-04T22:41:23.531Z,99.90
2018-10-04T22:43:52.964Z,99.90
2018-10-04T22:46:22.372Z,99.90
2018-10-04T22:48:51.799Z,99.90
2018-10-04T22:51:21.196Z,99.90
2018-10-04T22:53:50.573Z,99.90
2018-10-04T22:56:20.012Z,99.90
2018-10-04T22:58:49.503Z,99.90
2018-10-04T23:01:18.883Z,99.90
2018-10-04T23:03:48.283Z,99.90
2018-10-04T23:06:17.694Z,99.90
2018-10-04T23:08:47.267Z,99.90
2018-10-04T23:11:16.788Z,99.90
2018-10-04T23:13:46.136Z,99.90
2018-10-04T23:16:15.622Z,99.90
2018-10-04T23:18:45.137Z,99.90
2018-10-04T23:21:14.523Z,99.90
2018-10-04T23:23:43.931Z,99.90
2018-10-04T23:26:13.270Z,99.90
2018-10-04T23:28:42.646Z,99.90
2018-10-04T23:31:12.047Z,99.90
2018-10-04T23:33:41.432Z,99.90
2018-10-04T23:36:10.877Z,99.90
2018-10-04T23:38:40.297Z,99.90
2018-10-04T23:41:09.778Z,99.90
2018-10-04T23:43:39.272Z,99.90
2018-10-04T23:46:08.651Z,99.90
2018-10-04T23:48:38.115Z,99.90
2018-10-04T23:51:08.378Z,99.90
2018-10-04T23:53:37.819Z,99.90
2018-10-04T23:56:07.235Z,99.90
2018-10-04T23:58:36.635Z,99.90
